createdAt,value
2022-09-22T00:01:45.848Z,6.30
2022-09-22T00:04:14.543Z,6.30
2022-09-22T00:06:47.360Z,6.30
2022-09-22T00:09:17.951Z,6.20
2022-09-22T00:11:47.997Z,6.30
2022-09-22T00:14:20.162Z,6.30
2022-09-22T00:16:50.239Z,6.30
2022-09-22T00:19:21.175Z,6.30
2022-09-22T00:21:51.209Z,6.20
2022-09-22T00:24:21.828Z,6.20
2022-09-22T00:26:50.237Z,6.20
2022-09-22T00:29:18.929Z,6.10
2022-09-22T00:31:47.288Z,6.10
2022-09-22T00:34:16.672Z,6.10
2022-09-22T00:36:44.956Z,6.10
2022-09-22T00:39:15.094Z,6.10
2022-09-22T00:41:44.972Z,6.20
2022-09-22T00:44:36.057Z,6.00
2022-09-22T00:47:13.066Z,6.00
2022-09-22T00:49:47.036Z,6.10
2022-09-22T00:52:20.256Z,6.10
2022-09-22T00:54:50.828Z,6.00
2022-09-22T00:57:22.545Z,6.00
2022-09-22T00:59:52.652Z,6.00
2022-09-22T01:02:21.744Z,6.00
2022-09-22T01:04:52.287Z,5.90
2022-09-22T01:07:22.966Z,5.90
2022-09-22T01:09:52.334Z,5.90
2022-09-22T01:12:20.801Z,5.90
2022-09-22T01:15:04.764Z,5.90
2022-09-22T01:17:40.885Z,5.80
2022-09-22T01:20:47.688Z,5.80
2022-09-22T01:23:40.461Z,5.80
2022-09-22T01:26:25.901Z,5.80
2022-09-22T01:29:11.493Z,5.80
2022-09-22T01:31:45.671Z,5.80
2022-09-22T01:34:21.046Z,5.80
2022-09-22T01:36:54.697Z,5.80
2022-09-22T01:39:26.879Z,5.80
2022-09-22T01:41:59.376Z,5.80
2022-09-22T01:44:37.852Z,5.70
2022-09-22T01:47:11.958Z,5.70
2022-09-22T01:49:44.193Z,5.70
2022-09-22T01:52:17.184Z,5.90
2022-09-22T01:54:48.824Z,5.70
2022-09-22T01:57:22.562Z,5.60
2022-09-22T01:59:59.810Z,5.60
2022-09-22T02:02:34.141Z,5.60
2022-09-22T02:05:06.956Z,5.60
2022-09-22T02:07:38.392Z,5.60
2022-09-22T02:10:11.135Z,5.60
2022-09-22T02:12:39.735Z,5.60
2022-09-22T02:15:30.006Z,5.60
2022-09-22T02:18:04.248Z,5.60
2022-09-22T02:20:33.525Z,5.60
2022-09-22T02:23:01.527Z,5.50
2022-09-22T02:25:30.287Z,5.50
2022-09-22T02:27:59.277Z,5.50
2022-09-22T02:30:28.399Z,5.50
2022-09-22T02:33:00.262Z,5.50
2022-09-22T02:35:30.960Z,5.20
2022-09-22T02:38:05.980Z,5.50
2022-09-22T02:40:42.826Z,5.50
2022-09-22T02:43:15.875Z,5.50
2022-09-22T02:45:50.787Z,5.60
2022-09-22T02:48:24.613Z,5.50
2022-09-22T02:50:53.370Z,5.50
2022-09-22T02:53:21.586Z,5.50
2022-09-22T02:55:50.149Z,5.60
2022-09-22T02:58:18.606Z,5.60
2022-09-22T03:00:46.659Z,5.50
2022-09-22T03:03:14.677Z,5.50
2022-09-22T03:05:44.042Z,5.50
2022-09-22T03:08:12.097Z,5.50
2022-09-22T03:10:40.067Z,5.50
2022-09-22T03:13:16.879Z,5.50
2022-09-22T03:15:46.758Z,5.50
2022-09-22T03:18:15.161Z,5.50
2022-09-22T03:20:44.675Z,5.50
2022-09-22T03:23:12.703Z,5.50
2022-09-22T03:25:40.691Z,5.40
2022-09-22T03:28:08.726Z,5.40
2022-09-22T03:30:37.266Z,5.40
2022-09-22T03:33:05.491Z,5.30
2022-09-22T03:35:33.480Z,5.40
2022-09-22T03:38:02.789Z,5.40
2022-09-22T03:40:30.842Z,5.40
2022-09-22T03:42:58.891Z,5.40
2022-09-22T03:45:27.935Z,5.40
2022-09-22T03:47:55.999Z,5.40
2022-09-22T03:50:23.986Z,5.30
2022-09-22T03:52:51.943Z,5.50
2022-09-22T03:55:21.383Z,5.50
2022-09-22T03:57:49.470Z,5.50
2022-09-22T04:00:17.785Z,5.60
2022-09-22T04:02:45.828Z,5.60
2022-09-22T04:05:13.909Z,5.60
2022-09-22T04:07:42.434Z,5.70
2022-09-22T04:10:10.955Z,5.70
2022-09-22T04:12:40.320Z,5.70
2022-09-22T04:15:09.446Z,5.70
2022-09-22T04:17:38.114Z,5.70
2022-09-22T04:20:08.388Z,5.90
2022-09-22T04:22:36.421Z,5.70
2022-09-22T04:25:04.618Z,5.70
2022-09-22T04:27:32.635Z,5.70
2022-09-22T04:30:03.086Z,5.70
2022-09-22T04:32:31.025Z,5.70
2022-09-22T04:34:58.951Z,5.70
2022-09-22T04:37:26.969Z,5.90
2022-09-22T04:39:55.522Z,5.70
2022-09-22T04:42:23.514Z,5.70
2022-09-22T04:44:51.515Z,5.70
2022-09-22T04:47:20.833Z,5.70
2022-09-22T04:49:48.806Z,5.70
2022-09-22T04:52:16.891Z,5.70
2022-09-22T04:54:44.933Z,5.70
2022-09-22T04:57:16.013Z,5.70
2022-09-22T04:59:46.348Z,5.80
2022-09-22T05:02:14.358Z,5.80
2022-09-22T05:04:43.864Z,5.70
2022-09-22T05:07:11.884Z,5.70
2022-09-22T05:09:39.892Z,5.80
2022-09-22T05:12:07.999Z,5.80
2022-09-22T05:14:36.034Z,5.80
2022-09-22T05:17:04.545Z,6.00
2022-09-22T05:19:32.533Z,5.80
2022-09-22T05:22:01.835Z,5.80
2022-09-22T05:24:30.323Z,5.80
2022-09-22T05:26:58.870Z,5.90
2022-09-22T05:29:28.147Z,5.90
2022-09-22T05:31:56.534Z,5.90
2022-09-22T05:34:24.615Z,6.00
2022-09-22T05:36:52.591Z,6.00
2022-09-22T05:39:21.992Z,6.00
2022-09-22T05:41:50.130Z,6.00
2022-09-22T05:44:18.231Z,6.00
2022-09-22T05:46:46.788Z,6.00
2022-09-22T05:49:14.960Z,6.10
2022-09-22T05:51:43.191Z,6.10
2022-09-22T05:54:11.479Z,5.90
2022-09-22T05:56:41.182Z,6.40
2022-09-22T05:59:09.229Z,6.20
2022-09-22T06:01:38.992Z,6.20
2022-09-22T06:04:06.996Z,6.40
2022-09-22T06:06:34.997Z,6.30
2022-09-22T06:09:02.960Z,6.40
2022-09-22T06:11:30.949Z,6.40
2022-09-22T06:14:00.398Z,6.40
2022-09-22T06:16:28.526Z,6.40
2022-09-22T06:18:56.594Z,6.50
2022-09-22T06:21:25.891Z,6.50
2022-09-22T06:23:54.229Z,6.50
2022-09-22T06:26:22.389Z,6.50
2022-09-22T06:28:50.644Z,6.50
2022-09-22T06:31:20.170Z,6.60
2022-09-22T06:33:50.051Z,6.60
2022-09-22T06:36:20.755Z,6.70
2022-09-22T06:38:48.707Z,6.80
2022-09-22T06:41:16.760Z,6.90
2022-09-22T06:43:47.873Z,7.00
2022-09-22T06:46:18.644Z,7.20
2022-09-22T06:48:50.939Z,7.30
2022-09-22T06:51:19.202Z,7.50
2022-09-22T06:53:51.799Z,7.70
2022-09-22T06:56:20.631Z,7.80
2022-09-22T06:59:08.844Z,7.90
2022-09-22T07:01:38.135Z,8.10
2022-09-22T07:04:08.118Z,8.30
2022-09-22T07:06:37.397Z,8.50
2022-09-22T07:09:06.494Z,8.60
2022-09-22T07:11:39.048Z,8.80
2022-09-22T07:14:09.081Z,8.90
2022-09-22T07:16:37.714Z,9.10
2022-09-22T07:19:08.135Z,9.30
2022-09-22T07:21:37.824Z,9.50
2022-09-22T07:24:08.174Z,9.70
2022-09-22T07:26:39.097Z,9.90
2022-09-22T07:29:11.754Z,10.10
2022-09-22T07:31:40.451Z,10.20
2022-09-22T07:34:09.883Z,10.40
2022-09-22T07:36:38.041Z,10.70
2022-09-22T07:39:08.384Z,10.70
2022-09-22T07:41:41.773Z,10.90
2022-09-22T07:44:28.842Z,11.20
2022-09-22T07:46:57.315Z,11.40
2022-09-22T07:49:26.762Z,11.70
2022-09-22T07:51:55.229Z,12.00
2022-09-22T07:54:23.376Z,12.30
2022-09-22T07:56:58.350Z,12.60
2022-09-22T07:59:27.233Z,13.00
2022-09-22T08:01:55.691Z,13.30
2022-09-22T08:04:26.631Z,13.60
2022-09-22T08:06:56.383Z,14.00
2022-09-22T08:09:25.647Z,14.30
2022-09-22T08:11:53.878Z,14.60
2022-09-22T08:14:23.557Z,15.10
2022-09-22T08:16:51.895Z,15.50
2022-09-22T08:19:21.143Z,16.00
2022-09-22T08:21:54.195Z,16.50
2022-09-22T08:24:23.506Z,17.00
2022-09-22T08:26:56.099Z,17.60
2022-09-22T08:29:24.837Z,18.30
2022-09-22T08:31:54.047Z,19.00
2022-09-22T08:34:22.515Z,19.90
2022-09-22T08:36:51.927Z,20.70
2022-09-22T08:39:20.100Z,21.10
2022-09-22T08:42:00.194Z,21.50
2022-09-22T08:44:32.824Z,21.80
2022-09-22T08:47:02.321Z,22.10
2022-09-22T08:49:54.585Z,22.70
2022-09-22T08:52:29.203Z,23.20
2022-09-22T08:54:59.543Z,23.10
2022-09-22T08:57:41.301Z,23.50
2022-09-22T09:00:14.663Z,23.80
2022-09-22T09:02:45.949Z,24.20
2022-09-22T09:05:44.959Z,24.40
2022-09-22T09:08:29.665Z,24.60
2022-09-22T09:11:01.992Z,24.70
2022-09-22T09:13:44.422Z,24.80
2022-09-22T09:16:37.151Z,24.60
2022-09-22T09:19:12.147Z,24.60
2022-09-22T09:21:44.904Z,24.80
2022-09-22T09:27:15.638Z,24.90
2022-09-22T09:29:51.455Z,24.90
2022-09-22T09:32:28.206Z,24.80
2022-09-22T09:34:56.302Z,25.00
2022-09-22T09:37:24.885Z,25.50
2022-09-22T09:39:54.768Z,25.20
2022-09-22T09:42:26.538Z,25.30
2022-09-22T09:44:57.651Z,25.30
2022-09-22T09:47:44.191Z,25.20
2022-09-22T09:50:12.756Z,25.50
2022-09-22T09:52:42.246Z,26.00
2022-09-22T09:55:27.398Z,26.00
2022-09-22T09:58:11.053Z,26.00
2022-09-22T10:00:55.311Z,26.00
2022-09-22T10:03:29.950Z,26.80
2022-09-22T10:06:02.757Z,27.10
2022-09-22T10:08:36.644Z,27.10
2022-09-22T10:11:07.735Z,27.20
2022-09-22T10:13:37.309Z,27.10
2022-09-22T10:16:19.539Z,26.80
2022-09-22T10:18:48.699Z,26.50
2022-09-22T10:21:19.376Z,26.40
2022-09-22T10:23:48.184Z,26.30
2022-09-22T10:26:21.703Z,26.50
2022-09-22T10:29:19.088Z,26.80
2022-09-22T10:32:15.673Z,26.60
2022-09-22T10:37:18.840Z,24.80
2022-09-22T10:39:50.197Z,23.50
2022-09-22T10:42:33.435Z,23.40
2022-09-22T10:45:05.136Z,23.40
2022-09-22T10:47:51.343Z,23.40
2022-09-22T10:50:48.487Z,23.20
2022-09-22T10:53:34.160Z,23.20
2022-09-22T10:56:13.079Z,22.70
2022-09-22T10:58:59.561Z,22.40
2022-09-22T11:01:42.533Z,22.30
2022-09-22T11:04:43.003Z,21.80
2022-09-22T11:07:54.274Z,21.10
2022-09-22T11:10:47.831Z,20.20
2022-09-22T11:13:25.270Z,19.40
2022-09-22T11:16:13.321Z,18.90
2022-09-22T11:18:55.125Z,18.70
2022-09-22T11:21:33.782Z,18.40
2022-09-22T11:24:21.557Z,18.40
2022-09-22T11:26:52.418Z,18.40
2022-09-22T11:29:41.768Z,18.30
2022-09-22T11:32:26.722Z,18.10
2022-09-22T11:35:14.595Z,18.00
2022-09-22T11:37:53.104Z,17.90
2022-09-22T11:40:33.548Z,17.70
2022-09-22T11:43:19.655Z,17.60
2022-09-22T11:45:54.198Z,17.40
2022-09-22T11:48:41.481Z,17.30
2022-09-22T11:51:28.739Z,17.30
2022-09-22T11:54:16.290Z,17.20
2022-09-22T11:56:48.252Z,17.20
2022-09-22T11:59:39.016Z,17.00
2022-09-22T12:02:17.273Z,17.00
2022-09-22T12:04:53.388Z,16.90
2022-09-22T12:07:28.219Z,16.80
2022-09-22T12:10:00.753Z,16.70
2022-09-22T12:12:30.920Z,16.60
2022-09-22T12:15:06.876Z,16.70
2022-09-22T12:17:41.960Z,16.60
2022-09-22T12:20:32.954Z,16.60
2022-09-22T12:23:21.150Z,16.70
2022-09-22T12:25:52.204Z,16.80
2022-09-22T12:28:26.774Z,17.00
2022-09-22T12:31:06.344Z,17.40
2022-09-22T12:33:35.864Z,17.80
2022-09-22T12:36:06.845Z,18.20
2022-09-22T12:38:35.366Z,18.50
2022-09-22T12:41:04.731Z,18.70
2022-09-22T12:43:34.824Z,18.80
2022-09-22T12:46:06.724Z,18.80
2022-09-22T12:48:37.167Z,18.70
2022-09-22T12:51:34.235Z,18.60
2022-09-22T12:54:47.981Z,18.40
2022-09-22T12:57:29.423Z,18.30
2022-09-22T13:00:12.860Z,18.50
2022-09-22T13:02:46.016Z,18.60
2022-09-22T13:05:37.648Z,18.60
2022-09-22T13:08:07.856Z,18.60
2022-09-22T13:10:43.348Z,18.60
2022-09-22T13:13:12.375Z,18.70
2022-09-22T13:15:59.539Z,18.60
2022-09-22T13:18:32.462Z,18.50
2022-09-22T13:21:01.970Z,18.40
2022-09-22T13:23:31.444Z,18.30
2022-09-22T13:26:09.493Z,18.20
2022-09-22T13:28:37.578Z,18.20
2022-09-22T13:31:13.246Z,18.10
2022-09-22T13:33:41.706Z,18.10
2022-09-22T13:36:13.893Z,18.10
2022-09-22T13:38:45.080Z,18.10
2022-09-22T13:41:18.892Z,18.20
2022-09-22T13:43:49.738Z,18.40
2022-09-22T13:46:23.295Z,18.60
2022-09-22T13:48:53.724Z,18.80
2022-09-22T13:51:25.113Z,19.00
2022-09-22T13:53:57.845Z,19.20
2022-09-22T13:56:30.011Z,19.30
2022-09-22T13:59:02.096Z,19.30
2022-09-22T14:01:31.726Z,19.30
2022-09-22T14:03:59.809Z,19.30
2022-09-22T14:06:31.483Z,19.20
2022-09-22T14:09:02.615Z,19.20
2022-09-22T14:11:33.155Z,19.20
2022-09-22T14:14:02.840Z,19.20
2022-09-22T14:16:37.136Z,19.20
2022-09-22T14:19:08.148Z,19.20
2022-09-22T14:21:44.733Z,19.20
2022-09-22T14:24:15.843Z,19.20
2022-09-22T14:26:47.996Z,19.00
2022-09-22T14:29:23.563Z,19.10
2022-09-22T14:31:54.949Z,19.20
2022-09-22T14:34:26.497Z,19.30
2022-09-22T14:36:56.282Z,19.50
2022-09-22T14:39:33.898Z,19.40
2022-09-22T14:42:09.900Z,19.10
2022-09-22T14:44:46.129Z,18.80
2022-09-22T14:47:24.185Z,18.60
2022-09-22T14:50:07.833Z,18.40
2022-09-22T14:52:40.183Z,18.10
2022-09-22T14:55:18.100Z,18.00
2022-09-22T14:57:49.527Z,17.90
2022-09-22T15:00:36.675Z,17.80
2022-09-22T15:03:15.450Z,17.80
2022-09-22T15:05:44.334Z,17.70
2022-09-22T15:08:18.106Z,17.60
2022-09-22T15:10:56.109Z,17.60
2022-09-22T15:13:31.286Z,17.50
2022-09-22T15:15:59.618Z,17.50
2022-09-22T15:18:30.774Z,17.50
2022-09-22T15:21:04.072Z,17.50
2022-09-22T15:23:39.502Z,17.30
2022-09-22T15:26:15.856Z,17.20
2022-09-22T15:28:48.537Z,17.10
2022-09-22T15:31:22.425Z,17.10
2022-09-22T15:33:50.794Z,17.00
2022-09-22T15:36:21.364Z,17.00
2022-09-22T15:38:50.008Z,17.00
2022-09-22T15:41:19.345Z,16.90
2022-09-22T15:43:47.539Z,16.90
2022-09-22T15:46:31.500Z,17.00
2022-09-22T15:49:00.947Z,17.00
2022-09-22T15:51:30.514Z,17.00
2022-09-22T15:53:58.707Z,17.10
2022-09-22T15:56:30.489Z,17.10
2022-09-22T15:59:01.283Z,17.20
2022-09-22T16:01:29.859Z,17.10
2022-09-22T16:04:00.345Z,17.00
2022-09-22T16:06:29.109Z,16.90
2022-09-22T16:08:58.417Z,16.90
2022-09-22T16:11:31.359Z,16.80
2022-09-22T16:14:03.499Z,16.70
2022-09-22T16:16:33.045Z,16.60
2022-09-22T16:19:01.597Z,16.40
2022-09-22T16:21:31.124Z,16.30
2022-09-22T16:24:03.762Z,16.10
2022-09-22T16:26:33.547Z,16.10
2022-09-22T16:29:03.208Z,16.10
2022-09-22T16:31:31.548Z,16.20
2022-09-22T16:34:01.790Z,16.20
2022-09-22T16:36:32.949Z,16.20
2022-09-22T16:39:01.956Z,16.20
2022-09-22T16:41:32.017Z,16.20
2022-09-22T16:44:02.425Z,16.20
2022-09-22T16:46:31.779Z,16.10
2022-09-22T16:49:04.128Z,16.10
2022-09-22T16:51:33.341Z,16.00
2022-09-22T16:54:01.559Z,15.90
2022-09-22T16:56:31.236Z,15.80
2022-09-22T16:59:01.317Z,15.70
2022-09-22T17:01:32.682Z,15.60
2022-09-22T17:04:00.794Z,15.50
2022-09-22T17:06:29.239Z,15.30
2022-09-22T17:08:58.833Z,15.20
2022-09-22T17:11:30.156Z,15.10
2022-09-22T17:14:01.420Z,14.90
2022-09-22T17:16:32.565Z,14.80
2022-09-22T17:19:03.200Z,14.70
2022-09-22T17:21:34.447Z,14.50
2022-09-22T17:24:03.971Z,14.40
2022-09-22T17:26:33.344Z,14.30
2022-09-22T17:29:01.586Z,14.10
2022-09-22T17:31:32.196Z,14.00
2022-09-22T17:34:00.238Z,13.90
2022-09-22T17:36:29.519Z,13.80
2022-09-22T17:38:59.268Z,13.70
2022-09-22T17:41:29.681Z,13.60
2022-09-22T17:44:00.960Z,13.50
2022-09-22T17:46:32.713Z,13.40
2022-09-22T17:49:18.606Z,13.30
2022-09-22T17:52:06.047Z,13.20
2022-09-22T17:54:53.053Z,13.10
2022-09-22T17:57:22.907Z,12.90
2022-09-22T17:59:51.631Z,12.80
2022-09-22T18:02:21.825Z,12.70
2022-09-22T18:04:50.269Z,12.60
2022-09-22T18:07:19.770Z,12.60
2022-09-22T18:09:49.616Z,12.50
2022-09-22T18:12:21.216Z,12.50
2022-09-22T18:14:50.233Z,12.50
2022-09-22T18:17:21.483Z,12.40
2022-09-22T18:19:49.780Z,12.40
2022-09-22T18:22:21.021Z,12.40
2022-09-22T18:24:50.715Z,12.20
2022-09-22T18:27:19.639Z,12.10
2022-09-22T18:29:49.988Z,12.10
2022-09-22T18:32:20.302Z,12.00
2022-09-22T18:34:51.343Z,11.80
2022-09-22T18:37:20.495Z,11.80
2022-09-22T18:39:50.461Z,11.80
2022-09-22T18:42:22.917Z,11.70
2022-09-22T18:44:51.349Z,11.70
2022-09-22T18:47:23.242Z,11.60
2022-09-22T18:49:52.410Z,11.50
2022-09-22T18:52:24.618Z,11.50
2022-09-22T18:54:54.584Z,11.40
2022-09-22T18:57:25.705Z,11.40
2022-09-22T18:59:57.794Z,11.30
2022-09-22T19:02:27.574Z,11.50
2022-09-22T19:04:56.022Z,11.30
2022-09-22T19:07:42.370Z,11.30
2022-09-22T19:10:13.534Z,11.20
2022-09-22T19:12:42.725Z,11.20
2022-09-22T19:15:18.620Z,11.20
2022-09-22T19:17:52.673Z,11.10
2022-09-22T19:20:24.075Z,11.10
2022-09-22T19:22:53.878Z,11.00
2022-09-22T19:25:22.691Z,11.00
2022-09-22T19:27:52.433Z,11.00
2022-09-22T19:30:23.928Z,10.90
2022-09-22T19:32:55.524Z,10.90
2022-09-22T19:35:23.818Z,10.80
2022-09-22T19:37:53.626Z,10.80
2022-09-22T19:40:26.105Z,10.80
2022-09-22T19:42:55.273Z,10.80
2022-09-22T19:45:24.216Z,10.70
2022-09-22T19:47:52.759Z,10.70
2022-09-22T19:50:22.205Z,10.70
2022-09-22T19:52:50.488Z,10.70
2022-09-22T19:55:21.227Z,10.60
2022-09-22T19:57:52.299Z,10.60
2022-09-22T20:00:26.210Z,10.60
2022-09-22T20:02:58.610Z,10.50
2022-09-22T20:05:30.607Z,10.50
2022-09-22T20:07:58.849Z,10.50
2022-09-22T20:10:26.991Z,10.40
2022-09-22T20:12:55.419Z,10.40
2022-09-22T20:15:23.652Z,10.60
2022-09-22T20:17:51.847Z,10.30
2022-09-22T20:20:22.664Z,10.30
2022-09-22T20:22:58.072Z,10.20
2022-09-22T20:25:28.582Z,10.20
2022-09-22T20:27:57.561Z,10.20
2022-09-22T20:30:25.815Z,10.10
2022-09-22T20:32:53.991Z,10.10
2022-09-22T20:35:22.208Z,10.10
2022-09-22T20:37:52.412Z,10.00
2022-09-22T20:40:23.177Z,10.00
2022-09-22T20:42:54.158Z,9.90
2022-09-22T20:45:24.478Z,9.80
2022-09-22T20:47:56.152Z,9.80
2022-09-22T20:50:24.171Z,9.70
2022-09-22T20:52:53.656Z,9.70
2022-09-22T20:55:22.107Z,9.70
2022-09-22T20:57:50.192Z,9.60
2022-09-22T21:00:18.327Z,9.60
2022-09-22T21:02:47.524Z,9.50
2022-09-22T21:05:15.716Z,9.50
2022-09-22T21:07:43.727Z,9.40
2022-09-22T21:10:30.694Z,9.50
2022-09-22T21:13:00.436Z,9.40
2022-09-22T21:15:29.860Z,9.30
2022-09-22T21:17:58.462Z,9.50
2022-09-22T21:20:27.158Z,9.30
2022-09-22T21:22:55.722Z,9.30
2022-09-22T21:25:25.345Z,9.30
2022-09-22T21:27:53.331Z,9.20
2022-09-22T21:30:21.386Z,9.20
2022-09-22T21:32:49.352Z,9.20
2022-09-22T21:35:17.473Z,9.20
2022-09-22T21:37:45.731Z,9.20
2022-09-22T21:40:14.087Z,9.10
2022-09-22T21:42:43.526Z,9.10
2022-09-22T21:45:12.962Z,9.00
2022-09-22T21:47:41.077Z,9.00
2022-09-22T21:50:10.150Z,9.00
2022-09-22T21:52:38.564Z,9.00
2022-09-22T21:55:07.738Z,8.90
2022-09-22T21:57:35.864Z,8.90
2022-09-22T22:00:07.525Z,8.90
2022-09-22T22:02:55.776Z,8.80
2022-09-22T22:05:23.921Z,8.80
2022-09-22T22:07:52.007Z,8.70
2022-09-22T22:10:20.084Z,8.70
2022-09-22T22:12:48.062Z,8.50
2022-09-22T22:15:17.638Z,8.60
2022-09-22T22:17:45.662Z,8.50
2022-09-22T22:20:13.959Z,8.50
2022-09-22T22:22:41.963Z,8.50
2022-09-22T22:25:18.454Z,8.40
2022-09-22T22:27:46.616Z,8.40
2022-09-22T22:30:14.820Z,8.40
2022-09-22T22:32:44.245Z,8.30
2022-09-22T22:35:12.769Z,8.30
2022-09-22T22:37:40.786Z,8.20
2022-09-22T22:40:09.610Z,8.40
2022-09-22T22:42:38.107Z,8.30
2022-09-22T22:45:06.851Z,8.20
2022-09-22T22:47:34.896Z,8.20
2022-09-22T22:50:04.344Z,8.20
2022-09-22T22:52:32.426Z,8.20
2022-09-22T22:55:00.463Z,8.10
2022-09-22T22:57:28.993Z,8.10
2022-09-22T22:59:57.286Z,8.10
2022-09-22T23:02:25.630Z,8.00
2022-09-22T23:04:54.292Z,8.00
2022-09-22T23:07:23.791Z,8.00
2022-09-22T23:10:06.174Z,7.90
2022-09-22T23:12:35.113Z,7.90
2022-09-22T23:15:03.228Z,7.90
2022-09-22T23:17:31.972Z,7.80
2022-09-22T23:19:59.960Z,7.90
2022-09-22T23:22:30.562Z,7.80
2022-09-22T23:24:58.994Z,7.80
2022-09-22T23:27:28.350Z,7.80
2022-09-22T23:29:57.158Z,7.80
2022-09-22T23:32:25.631Z,7.80
2022-09-22T23:34:53.695Z,7.70
2022-09-22T23:37:24.816Z,7.80
2022-09-22T23:39:54.995Z,7.80
2022-09-22T23:42:24.300Z,7.90
2022-09-22T23:44:52.344Z,7.90
2022-09-22T23:47:20.690Z,7.80
2022-09-22T23:49:48.713Z,7.80
2022-09-22T23:52:16.699Z,7.90
2022-09-22T23:54:45.186Z,7.90
2022-09-22T23:57:14.503Z,7.80
2022-09-22T23:59:42.493Z,7.90
